createdAt,value
2019-01-27T00:01:01.256Z,3.07
2019-01-27T00:03:34.948Z,3.27
2019-01-27T00:06:08.716Z,3.43
2019-01-27T00:08:42.434Z,3.73
2019-01-27T00:11:16.795Z,3.80
2019-01-27T00:13:50.463Z,3.00
2019-01-27T00:16:23.983Z,2.73
2019-01-27T00:18:57.671Z,3.50
2019-01-27T00:21:31.300Z,3.17
2019-01-27T00:24:05.035Z,2.87
2019-01-27T00:26:38.703Z,3.23
2019-01-27T00:29:12.576Z,3.10
2019-01-27T00:31:46.363Z,2.90
2019-01-27T00:34:20.984Z,3.23
2019-01-27T00:36:54.688Z,3.60
2019-01-27T00:39:28.617Z,2.90
2019-01-27T00:42:03.116Z,3.00
2019-01-27T00:44:36.944Z,3.17
2019-01-27T00:47:10.747Z,3.20
2019-01-27T00:49:44.668Z,3.40
2019-01-27T00:52:18.642Z,3.23
2019-01-27T00:54:52.468Z,2.30
2019-01-27T00:57:26.291Z,2.73
2019-01-27T01:00:00.234Z,2.50
2019-01-27T01:02:33.994Z,3.20
2019-01-27T01:05:07.740Z,2.80
2019-01-27T01:07:42.204Z,2.53
2019-01-27T01:10:20.148Z,2.60
2019-01-27T01:12:53.957Z,2.73
2019-01-27T01:15:27.757Z,2.30
2019-01-27T01:18:02.436Z,2.67
2019-01-27T01:20:36.128Z,2.80
2019-01-27T01:23:09.902Z,3.10
2019-01-27T01:25:43.639Z,2.60
2019-01-27T01:28:17.453Z,3.07
2019-01-27T01:30:51.076Z,2.80
2019-01-27T01:33:24.771Z,3.20
2019-01-27T01:35:59.173Z,2.67
2019-01-27T01:38:32.916Z,2.60
2019-01-27T01:41:06.833Z,2.67
2019-01-27T01:43:40.607Z,2.07
2019-01-27T01:46:14.320Z,2.53
2019-01-27T01:48:48.159Z,2.17
2019-01-27T01:51:22.864Z,1.93
2019-01-27T01:53:56.621Z,2.20
2019-01-27T01:56:30.440Z,2.23
2019-01-27T01:59:04.346Z,2.30
2019-01-27T02:01:38.196Z,2.43
2019-01-27T02:04:12.060Z,1.90
2019-01-27T02:06:45.648Z,2.50
2019-01-27T02:09:20.304Z,2.47
2019-01-27T02:11:54.084Z,2.10
2019-01-27T02:14:27.829Z,2.30
2019-01-27T02:17:01.747Z,2.23
2019-01-27T02:19:36.344Z,2.40
2019-01-27T02:22:10.225Z,2.50
2019-01-27T02:24:44.169Z,2.40
2019-01-27T02:27:18.044Z,1.90
2019-01-27T02:29:51.892Z,2.17
2019-01-27T02:32:25.584Z,2.30
2019-01-27T02:34:59.373Z,2.03
2019-01-27T02:37:33.260Z,2.03
2019-01-27T02:40:09.782Z,2.37
2019-01-27T02:42:44.220Z,1.93
2019-01-27T02:45:18.067Z,1.93
2019-01-27T02:47:51.904Z,2.27
2019-01-27T02:50:26.445Z,2.30
2019-01-27T02:53:00.947Z,1.87
2019-01-27T02:55:35.484Z,1.77
2019-01-27T02:58:09.388Z,1.63
2019-01-27T03:00:43.257Z,2.07
2019-01-27T03:03:17.008Z,1.70
2019-01-27T03:05:51.650Z,1.67
2019-01-27T03:08:26.241Z,2.10
2019-01-27T03:11:00.026Z,1.60
2019-01-27T03:13:33.776Z,1.70
2019-01-27T03:16:08.284Z,1.97
2019-01-27T03:18:42.792Z,1.57
2019-01-27T03:21:16.592Z,1.47
2019-01-27T03:23:50.328Z,1.37
2019-01-27T03:26:24.212Z,1.50
2019-01-27T03:28:58.758Z,1.33
2019-01-27T03:31:33.282Z,1.57
2019-01-27T03:34:07.009Z,1.47
2019-01-27T03:36:40.778Z,1.37
2019-01-27T03:39:14.676Z,1.40
2019-01-27T03:41:49.207Z,1.57
2019-01-27T03:44:23.901Z,1.60
2019-01-27T03:46:57.515Z,1.23
2019-01-27T03:49:31.265Z,1.33
2019-01-27T03:52:05.877Z,1.43
2019-01-27T03:54:39.657Z,1.13
2019-01-27T03:57:14.112Z,1.50
2019-01-27T03:59:47.808Z,1.10
2019-01-27T04:02:21.702Z,1.17
2019-01-27T04:04:56.321Z,1.43
2019-01-27T04:07:30.013Z,1.63
2019-01-27T04:10:03.888Z,1.40
2019-01-27T04:12:37.593Z,1.40
2019-01-27T04:15:12.104Z,1.63
2019-01-27T04:17:46.572Z,1.40
2019-01-27T04:20:20.436Z,1.40
2019-01-27T04:22:54.252Z,1.40
2019-01-27T04:25:28.056Z,1.10
2019-01-27T04:28:01.790Z,1.30
2019-01-27T04:30:35.558Z,1.37
2019-01-27T04:33:10.128Z,1.23
2019-01-27T04:35:43.892Z,1.20
2019-01-27T04:38:17.672Z,1.53
2019-01-27T04:40:51.430Z,1.23
2019-01-27T04:43:25.868Z,1.33
2019-01-27T04:45:59.604Z,1.70
2019-01-27T04:48:34.102Z,1.27
2019-01-27T04:51:07.840Z,1.30
2019-01-27T04:53:41.662Z,1.33
2019-01-27T04:56:16.341Z,1.30
2019-01-27T04:58:50.088Z,1.40
2019-01-27T05:01:24.621Z,1.20
2019-01-27T05:03:58.288Z,1.17
2019-01-27T05:06:32.057Z,1.50
2019-01-27T05:09:06.009Z,0.90
2019-01-27T05:11:39.763Z,1.20
2019-01-27T05:14:14.338Z,1.17
2019-01-27T05:16:48.133Z,1.30
2019-01-27T05:19:21.908Z,1.30
2019-01-27T05:21:55.820Z,1.13
2019-01-27T05:24:29.694Z,1.37
2019-01-27T05:27:03.556Z,1.57
2019-01-27T05:29:37.328Z,1.43
2019-01-27T05:32:11.218Z,1.27
2019-01-27T05:34:44.973Z,1.40
2019-01-27T05:37:19.491Z,1.20
2019-01-27T05:39:53.255Z,1.00
2019-01-27T05:42:27.769Z,1.20
2019-01-27T05:45:02.318Z,1.37
2019-01-27T05:47:35.968Z,1.33
2019-01-27T05:50:11.238Z,1.30
2019-01-27T05:52:45.049Z,1.43
2019-01-27T05:55:19.549Z,1.43
2019-01-27T05:57:53.448Z,1.40
2019-01-27T06:00:27.460Z,1.10
2019-01-27T06:03:01.260Z,0.90
2019-01-27T06:05:35.767Z,1.20
2019-01-27T06:08:09.495Z,1.13
2019-01-27T06:10:43.433Z,1.07
2019-01-27T06:13:17.204Z,0.77
2019-01-27T06:15:50.920Z,0.90
2019-01-27T06:18:24.848Z,0.83
2019-01-27T06:20:58.604Z,1.20
2019-01-27T06:23:32.588Z,1.00
2019-01-27T06:26:06.441Z,1.17
2019-01-27T06:28:41.082Z,0.90
2019-01-27T06:31:14.788Z,1.40
2019-01-27T06:33:48.473Z,1.10
2019-01-27T06:36:22.096Z,1.00
2019-01-27T06:38:55.984Z,1.20
2019-01-27T06:41:30.606Z,1.00
2019-01-27T06:44:04.401Z,1.33
2019-01-27T06:46:39.016Z,1.00
2019-01-27T06:49:13.573Z,0.80
2019-01-27T06:51:47.341Z,0.90
2019-01-27T06:54:20.972Z,1.27
2019-01-27T06:56:54.713Z,1.20
2019-01-27T06:59:28.496Z,1.20
2019-01-27T07:02:02.136Z,1.10
2019-01-27T07:04:35.876Z,0.93
2019-01-27T07:07:09.572Z,1.00
2019-01-27T07:09:43.284Z,1.20
2019-01-27T07:12:17.672Z,1.17
2019-01-27T07:14:51.403Z,0.90
2019-01-27T07:17:25.902Z,1.10
2019-01-27T07:19:59.564Z,1.10
2019-01-27T07:22:33.219Z,1.17
2019-01-27T07:25:06.892Z,0.80
2019-01-27T07:27:40.631Z,1.00
2019-01-27T07:30:14.378Z,1.30
2019-01-27T07:32:48.139Z,0.90
2019-01-27T07:35:22.704Z,0.90
2019-01-27T07:37:57.164Z,1.40
2019-01-27T07:40:30.897Z,1.20
2019-01-27T07:43:04.639Z,1.20
2019-01-27T07:45:38.403Z,1.07
2019-01-27T07:48:12.099Z,1.07
2019-01-27T07:50:45.880Z,0.80
2019-01-27T07:53:20.577Z,0.97
2019-01-27T07:55:54.248Z,0.90
2019-01-27T07:58:27.981Z,1.30
2019-01-27T08:01:01.804Z,1.23
2019-01-27T08:03:35.512Z,1.30
2019-01-27T08:06:09.404Z,0.97
2019-01-27T08:08:43.100Z,0.93
2019-01-27T08:11:16.917Z,1.10
2019-01-27T08:13:50.542Z,1.13
2019-01-27T08:16:24.276Z,1.07
2019-01-27T08:18:58.120Z,1.30
2019-01-27T08:21:31.974Z,1.20
2019-01-27T08:24:05.908Z,1.10
2019-01-27T08:26:40.523Z,1.20
2019-01-27T08:29:14.276Z,1.30
2019-01-27T08:31:47.955Z,1.33
2019-01-27T08:34:22.492Z,1.10
2019-01-27T08:36:57.013Z,1.20
2019-01-27T08:39:30.725Z,1.00
2019-01-27T08:42:05.244Z,0.97
2019-01-27T08:44:39.501Z,1.27
2019-01-27T08:47:14.073Z,1.00
2019-01-27T08:49:48.637Z,1.13
2019-01-27T08:52:22.410Z,1.03
2019-01-27T08:54:56.205Z,1.10
2019-01-27T08:57:31.090Z,1.30
2019-01-27T09:00:08.709Z,1.00
2019-01-27T09:02:42.756Z,1.13
2019-01-27T09:05:16.548Z,1.33
2019-01-27T09:07:50.433Z,1.60
2019-01-27T09:10:25.048Z,0.90
2019-01-27T09:12:58.825Z,1.00
2019-01-27T09:15:32.682Z,1.10
2019-01-27T09:18:06.545Z,1.07
2019-01-27T09:20:40.385Z,0.90
2019-01-27T09:23:14.152Z,1.10
2019-01-27T09:25:47.940Z,1.20
2019-01-27T09:28:21.686Z,1.07
2019-01-27T09:30:55.424Z,0.80
2019-01-27T09:33:29.441Z,0.80
2019-01-27T09:36:03.409Z,0.80
2019-01-27T09:38:37.523Z,0.90
2019-01-27T09:41:11.873Z,1.00
2019-01-27T09:43:46.330Z,1.20
2019-01-27T09:46:20.022Z,1.00
2019-01-27T09:48:53.988Z,0.87
2019-01-27T09:51:27.976Z,1.23
2019-01-27T09:54:01.624Z,1.20
2019-01-27T09:56:35.241Z,1.20
2019-01-27T09:59:09.213Z,1.10
2019-01-27T10:01:42.948Z,1.00
2019-01-27T10:04:17.575Z,1.00
2019-01-27T10:06:51.348Z,1.10
2019-01-27T10:09:25.233Z,0.90
2019-01-27T10:11:59.176Z,2.00
2019-01-27T10:14:33.045Z,1.10
2019-01-27T10:17:07.548Z,0.87
2019-01-27T10:19:41.312Z,1.10
2019-01-27T10:22:15.306Z,0.90
2019-01-27T10:24:48.921Z,1.07
2019-01-27T10:27:22.836Z,1.17
2019-01-27T10:29:57.549Z,1.00
2019-01-27T10:32:31.565Z,0.77
2019-01-27T10:35:05.173Z,1.10
2019-01-27T10:37:38.892Z,0.70
2019-01-27T10:40:13.697Z,0.67
2019-01-27T10:42:47.637Z,1.00
2019-01-27T10:45:21.619Z,0.80
2019-01-27T10:47:56.109Z,0.67
2019-01-27T10:50:30.144Z,2.20
2019-01-27T10:53:04.774Z,1.23
2019-01-27T10:55:38.400Z,1.93
2019-01-27T10:58:12.878Z,1.10
2019-01-27T11:00:46.811Z,1.00
2019-01-27T11:03:20.542Z,1.20
2019-01-27T11:05:55.057Z,1.63
2019-01-27T11:08:28.966Z,1.40
2019-01-27T11:11:02.847Z,1.30
2019-01-27T11:13:47.554Z,1.30
2019-01-27T11:16:22.698Z,1.10
2019-01-27T11:18:56.482Z,1.20
2019-01-27T11:21:30.912Z,0.93
2019-01-27T11:24:04.685Z,1.10
2019-01-27T11:26:38.348Z,1.20
2019-01-27T11:29:12.202Z,1.30
2019-01-27T11:31:46.319Z,0.70
2019-01-27T11:34:21.077Z,1.00
2019-01-27T11:36:55.689Z,1.03
2019-01-27T11:39:30.408Z,1.30
2019-01-27T11:42:03.966Z,1.10
2019-01-27T11:44:37.719Z,0.90
2019-01-27T11:47:11.541Z,1.10
2019-01-27T11:49:45.205Z,1.00
2019-01-27T11:52:19.196Z,1.00
2019-01-27T11:54:52.871Z,0.80
2019-01-27T11:57:26.727Z,0.80
2019-01-27T12:00:01.453Z,0.87
2019-01-27T12:02:35.561Z,0.63
2019-01-27T12:05:10.041Z,0.83
2019-01-27T12:07:43.868Z,0.67
2019-01-27T12:10:18.113Z,0.83
2019-01-27T12:12:52.461Z,1.10
2019-01-27T12:15:27.164Z,0.80
2019-01-27T12:18:00.865Z,0.77
2019-01-27T12:20:34.653Z,0.90
2019-01-27T12:23:09.400Z,0.87
2019-01-27T12:25:43.506Z,0.90
2019-01-27T12:28:17.358Z,1.13
2019-01-27T12:30:51.044Z,1.03
2019-01-27T12:33:25.602Z,1.43
2019-01-27T12:35:59.381Z,1.10
2019-01-27T12:38:33.885Z,1.00
2019-01-27T12:41:08.797Z,1.30
2019-01-27T12:43:42.916Z,1.30
2019-01-27T12:46:16.596Z,1.00
2019-01-27T12:48:50.353Z,1.13
2019-01-27T12:51:24.537Z,1.03
2019-01-27T12:53:59.364Z,1.13
2019-01-27T12:56:33.329Z,1.80
2019-01-27T12:59:07.373Z,1.43
2019-01-27T13:01:41.038Z,1.60
2019-01-27T13:04:15.012Z,1.60
2019-01-27T13:06:48.764Z,1.93
2019-01-27T13:09:22.663Z,1.30
2019-01-27T13:11:56.458Z,1.33
2019-01-27T13:14:30.193Z,1.60
2019-01-27T13:17:07.518Z,1.40
2019-01-27T13:19:37.824Z,1.47
2019-01-27T13:22:12.371Z,1.20
2019-01-27T13:24:45.528Z,1.50
2019-01-27T13:27:20.008Z,1.60
2019-01-27T13:29:54.456Z,1.70
2019-01-27T13:32:28.268Z,1.80
2019-01-27T13:35:01.993Z,2.00
2019-01-27T13:37:35.768Z,1.70
2019-01-27T13:40:15.878Z,1.50
2019-01-27T13:42:49.543Z,1.30
2019-01-27T13:45:24.152Z,1.73
2019-01-27T13:47:59.205Z,1.40
2019-01-27T13:50:31.582Z,1.50
2019-01-27T13:53:06.268Z,0.97
2019-01-27T13:55:39.992Z,1.70
2019-01-27T13:58:14.965Z,1.67
2019-01-27T14:00:49.379Z,1.00
2019-01-27T14:03:24.131Z,1.70
2019-01-27T14:05:57.960Z,1.33
2019-01-27T14:08:31.652Z,1.33
2019-01-27T14:11:05.538Z,1.43
2019-01-27T14:13:40.100Z,1.17
2019-01-27T14:16:14.270Z,1.20
2019-01-27T14:18:48.017Z,1.57
2019-01-27T14:21:21.925Z,1.23
2019-01-27T14:23:55.576Z,1.57
2019-01-27T14:26:29.504Z,1.00
2019-01-27T14:29:03.418Z,0.77
2019-01-27T14:31:37.040Z,1.23
2019-01-27T14:34:10.928Z,1.17
2019-01-27T14:36:44.596Z,2.13
2019-01-27T14:39:19.285Z,1.53
2019-01-27T14:41:53.360Z,1.30
2019-01-27T14:44:26.909Z,1.00
2019-01-27T14:47:00.676Z,1.10
2019-01-27T14:49:34.533Z,1.40
2019-01-27T14:52:08.358Z,1.40
2019-01-27T14:54:42.245Z,1.00
2019-01-27T14:57:16.416Z,1.00
2019-01-27T14:59:50.253Z,0.70
2019-01-27T15:02:24.100Z,1.10
2019-01-27T15:04:59.572Z,0.93
2019-01-27T15:07:33.312Z,0.90
2019-01-27T15:10:17.323Z,1.03
2019-01-27T15:12:51.159Z,1.20
2019-01-27T15:15:25.061Z,1.27
2019-01-27T15:17:59.050Z,1.00
2019-01-27T15:20:51.669Z,0.87
2019-01-27T15:23:25.743Z,1.30
2019-01-27T15:25:59.504Z,1.33
2019-01-27T15:28:33.950Z,1.07
2019-01-27T15:31:07.837Z,1.20
2019-01-27T15:33:41.492Z,1.13
2019-01-27T15:36:15.561Z,1.23
2019-01-27T15:38:49.661Z,1.20
2019-01-27T15:41:23.324Z,1.80
2019-01-27T15:43:57.122Z,2.40
2019-01-27T15:46:31.709Z,1.30
2019-01-27T15:49:05.368Z,1.43
2019-01-27T15:51:39.223Z,1.27
2019-01-27T15:54:13.309Z,1.40
2019-01-27T15:56:47.950Z,1.20
2019-01-27T15:59:21.858Z,1.40
2019-01-27T16:01:55.486Z,1.87
2019-01-27T16:04:29.256Z,1.50
2019-01-27T16:07:02.940Z,1.50
2019-01-27T16:09:36.748Z,1.10
2019-01-27T16:12:11.526Z,1.70
2019-01-27T16:14:45.269Z,1.50
2019-01-27T16:17:20.056Z,1.20
2019-01-27T16:19:54.048Z,1.20
2019-01-27T16:22:27.902Z,1.40
2019-01-27T16:25:02.601Z,1.40
2019-01-27T16:27:36.781Z,1.47
2019-01-27T16:30:14.264Z,1.20
2019-01-27T16:32:48.887Z,1.30
2019-01-27T16:35:22.974Z,1.17
2019-01-27T16:37:57.411Z,1.53
2019-01-27T16:40:31.252Z,1.03
2019-01-27T16:43:05.000Z,1.20
2019-01-27T16:45:38.787Z,1.20
2019-01-27T16:48:12.768Z,0.93
2019-01-27T16:50:46.492Z,0.90
2019-01-27T16:53:20.356Z,1.50
2019-01-27T16:55:54.142Z,1.27
2019-01-27T16:58:27.962Z,1.10
2019-01-27T17:01:01.683Z,1.10
2019-01-27T17:03:35.470Z,0.80
2019-01-27T17:06:09.980Z,0.97
2019-01-27T17:08:43.932Z,1.00
2019-01-27T17:11:18.061Z,1.20
2019-01-27T17:13:51.661Z,1.07
2019-01-27T17:16:25.689Z,0.97
2019-01-27T17:19:00.156Z,0.90
2019-01-27T17:21:34.373Z,1.13
2019-01-27T17:24:08.295Z,1.73
2019-01-27T17:26:42.084Z,1.10
2019-01-27T17:29:15.995Z,1.00
2019-01-27T17:31:50.000Z,0.90
2019-01-27T17:34:23.976Z,1.10
2019-01-27T17:36:57.640Z,0.70
2019-01-27T17:39:31.537Z,0.90
2019-01-27T17:42:05.333Z,0.83
2019-01-27T17:44:39.953Z,0.70
2019-01-27T17:50:16.740Z,0.60
2019-01-27T17:52:51.199Z,0.90
2019-01-27T17:55:24.994Z,1.13
2019-01-27T17:57:58.615Z,1.23
2019-01-27T18:00:33.127Z,0.70
2019-01-27T18:03:06.884Z,1.40
2019-01-27T18:05:40.562Z,0.30
2019-01-27T18:08:15.177Z,0.80
2019-01-27T18:10:48.900Z,0.80
2019-01-27T18:13:23.410Z,0.77
2019-01-27T18:15:56.964Z,0.70
2019-01-27T18:18:31.326Z,1.20
2019-01-27T18:21:05.052Z,1.00
2019-01-27T18:23:38.759Z,0.80
2019-01-27T18:26:12.502Z,0.90
2019-01-27T18:28:46.331Z,0.80
2019-01-27T18:31:20.014Z,0.50
2019-01-27T18:33:53.691Z,0.97
2019-01-27T18:36:32.159Z,1.13
2019-01-27T18:39:05.794Z,1.10
2019-01-27T18:41:39.672Z,0.70
2019-01-27T18:44:13.280Z,0.80
2019-01-27T18:46:47.834Z,0.43
2019-01-27T18:49:21.600Z,1.00
2019-01-27T18:51:58.158Z,0.70
2019-01-27T18:54:32.003Z,1.10
2019-01-27T18:57:06.630Z,1.07
2019-01-27T18:59:42.814Z,0.80
2019-01-27T19:02:17.399Z,0.70
2019-01-27T19:04:51.903Z,0.60
2019-01-27T19:07:25.658Z,1.10
2019-01-27T19:10:00.844Z,0.63
2019-01-27T19:12:34.105Z,0.97
2019-01-27T19:15:07.715Z,0.80
2019-01-27T19:17:41.420Z,0.70
2019-01-27T19:20:15.127Z,0.70
2019-01-27T19:22:48.967Z,0.87
2019-01-27T19:25:22.858Z,1.77
2019-01-27T19:27:56.547Z,1.20
2019-01-27T19:30:30.311Z,0.80
2019-01-27T19:33:04.940Z,4.23
2019-01-27T19:35:38.727Z,1.60
2019-01-27T19:38:12.435Z,0.50
2019-01-27T19:40:46.283Z,0.47
2019-01-27T19:43:20.190Z,1.47
2019-01-27T19:45:54.687Z,0.80
2019-01-27T19:48:28.432Z,0.50
2019-01-27T19:51:02.280Z,0.43
2019-01-27T19:53:36.185Z,1.10
2019-01-27T19:56:10.850Z,0.57
2019-01-27T19:58:44.693Z,1.37
2019-01-27T20:01:18.376Z,0.80
2019-01-27T20:03:51.983Z,0.90
2019-01-27T20:06:25.895Z,1.30
2019-01-27T20:08:59.605Z,0.70
2019-01-27T20:11:33.361Z,0.60
2019-01-27T20:14:07.080Z,1.00
2019-01-27T20:16:41.467Z,1.63
2019-01-27T20:19:16.016Z,1.90
2019-01-27T20:21:53.553Z,1.63
2019-01-27T20:24:24.331Z,0.90
2019-01-27T20:26:58.835Z,0.73
2019-01-27T20:29:32.554Z,0.73
2019-01-27T20:32:07.049Z,1.20
2019-01-27T20:34:40.811Z,0.80
2019-01-27T20:37:14.454Z,0.60
2019-01-27T20:39:48.090Z,0.80
2019-01-27T20:42:22.694Z,0.90
2019-01-27T20:44:56.414Z,0.87
2019-01-27T20:47:30.236Z,1.23
2019-01-27T20:50:03.812Z,1.40
2019-01-27T20:52:37.592Z,1.00
2019-01-27T20:55:11.259Z,1.30
2019-01-27T20:57:45.269Z,1.97
2019-01-27T21:00:18.982Z,1.87
2019-01-27T21:02:52.712Z,2.17
2019-01-27T21:05:26.624Z,2.70
2019-01-27T21:08:00.296Z,2.70
2019-01-27T21:10:34.948Z,1.40
2019-01-27T21:13:08.617Z,1.73
2019-01-27T21:15:44.351Z,1.20
2019-01-27T21:18:16.958Z,1.93
2019-01-27T21:20:53.565Z,1.30
2019-01-27T21:23:24.514Z,1.50
2019-01-27T21:25:59.025Z,1.40
2019-01-27T21:28:32.723Z,1.80
2019-01-27T21:31:07.315Z,1.53
2019-01-27T21:33:41.832Z,1.23
2019-01-27T21:36:16.436Z,1.47
2019-01-27T21:38:50.323Z,1.70
2019-01-27T21:41:23.980Z,1.70
2019-01-27T21:43:57.712Z,1.83
2019-01-27T21:46:32.189Z,1.60
2019-01-27T21:49:05.927Z,1.60
2019-01-27T21:51:40.327Z,1.70
2019-01-27T21:54:14.847Z,1.30
2019-01-27T21:56:48.664Z,1.40
2019-01-27T21:59:22.363Z,1.40
2019-01-27T22:01:56.250Z,1.67
2019-01-27T22:04:29.879Z,1.53
2019-01-27T22:07:03.599Z,1.53
2019-01-27T22:09:38.193Z,1.43
2019-01-27T22:12:11.925Z,1.63
2019-01-27T22:14:45.748Z,1.60
2019-01-27T22:17:19.720Z,1.43
2019-01-27T22:19:53.595Z,1.60
2019-01-27T22:22:27.468Z,1.63
2019-01-27T22:25:01.232Z,1.60
2019-01-27T22:27:35.083Z,1.90
2019-01-27T22:30:08.984Z,1.53
2019-01-27T22:32:42.884Z,1.47
2019-01-27T22:35:17.505Z,1.70
2019-01-27T22:37:51.203Z,1.63
2019-01-27T22:40:24.876Z,1.33
2019-01-27T22:42:58.575Z,1.40
2019-01-27T22:45:32.220Z,1.60
2019-01-27T22:48:06.075Z,1.50
2019-01-27T22:50:39.946Z,1.50
2019-01-27T22:53:13.846Z,1.70
2019-01-27T22:55:48.451Z,1.30
2019-01-27T22:58:22.859Z,1.47
2019-01-27T23:00:57.467Z,1.50
2019-01-27T23:03:31.903Z,1.37
2019-01-27T23:06:05.791Z,1.60
2019-01-27T23:08:39.402Z,1.37
2019-01-27T23:11:13.159Z,1.60
2019-01-27T23:13:47.055Z,1.63
2019-01-27T23:16:20.967Z,1.60
2019-01-27T23:18:54.836Z,1.40
2019-01-27T23:21:28.573Z,1.33
2019-01-27T23:24:02.442Z,1.30
2019-01-27T23:26:36.083Z,1.83
2019-01-27T23:29:10.716Z,1.43
2019-01-27T23:31:44.480Z,1.50
2019-01-27T23:34:18.305Z,1.70
2019-01-27T23:36:52.819Z,1.80
2019-01-27T23:39:26.540Z,1.97
2019-01-27T23:42:00.467Z,2.10
2019-01-27T23:44:34.235Z,2.00
2019-01-27T23:50:05.249Z,2.30
2019-01-27T23:52:39.111Z,2.63
2019-01-27T23:55:12.980Z,2.80
2019-01-27T23:57:46.688Z,2.67
